createdAt,value
2017-10-11T00:00:27.675Z,86.97
2017-10-11T00:02:53.909Z,87.25
2017-10-11T00:05:20.122Z,87.91
2017-10-11T00:07:46.358Z,88.90
2017-10-11T00:10:12.580Z,90.46
2017-10-11T00:12:38.870Z,90.42
2017-10-11T00:15:05.093Z,89.92
2017-10-11T00:17:31.317Z,89.44
2017-10-11T00:19:57.576Z,89.37
2017-10-11T00:22:23.798Z,87.73
2017-10-11T00:24:50.043Z,88.07
2017-10-11T00:27:16.282Z,88.05
2017-10-11T00:29:42.487Z,86.89
2017-10-11T00:32:08.700Z,88.04
2017-10-11T00:34:34.920Z,87.26
2017-10-11T00:37:01.179Z,89.23
2017-10-11T00:39:27.409Z,88.73
2017-10-11T00:41:53.641Z,88.27
2017-10-11T00:44:19.890Z,86.68
2017-10-11T00:46:46.254Z,86.31
2017-10-11T00:49:12.575Z,85.64
2017-10-11T00:51:38.798Z,85.68
2017-10-11T00:54:05.021Z,87.17
2017-10-11T00:56:31.246Z,88.28
2017-10-11T00:58:57.472Z,90.39
2017-10-11T01:01:23.799Z,90.14
2017-10-11T01:03:50.025Z,87.04
2017-10-11T01:06:16.249Z,87.28
2017-10-11T01:08:42.480Z,88.23
2017-10-11T01:11:08.708Z,89.37
2017-10-11T01:13:34.938Z,91.26
2017-10-11T01:16:01.154Z,90.43
2017-10-11T01:18:27.422Z,91.31
2017-10-11T01:20:53.664Z,92.48
2017-10-11T01:23:19.894Z,93.16
2017-10-11T01:25:46.157Z,93.77
2017-10-11T01:28:12.377Z,94.04
2017-10-11T01:30:38.624Z,93.86
2017-10-11T01:33:04.970Z,93.50
2017-10-11T01:35:31.227Z,93.39
2017-10-11T01:37:57.487Z,93.36
2017-10-11T01:40:23.698Z,94.15
2017-10-11T01:42:49.917Z,92.02
2017-10-11T01:45:16.151Z,90.41
2017-10-11T01:47:42.391Z,90.60
2017-10-11T01:50:08.602Z,91.27
2017-10-11T01:52:35.011Z,91.27
2017-10-11T01:55:01.229Z,90.05
2017-10-11T01:57:27.439Z,89.89
2017-10-11T01:59:53.664Z,90.47
2017-10-11T02:02:19.920Z,90.70
2017-10-11T02:04:46.152Z,92.14
2017-10-11T02:07:12.399Z,91.97
2017-10-11T02:09:38.650Z,90.87
2017-10-11T02:12:05.067Z,90.76
2017-10-11T02:14:31.358Z,90.68
2017-10-11T02:16:57.604Z,91.14
2017-10-11T02:19:23.953Z,91.51
2017-10-11T02:21:50.170Z,92.50
2017-10-11T02:24:16.411Z,91.56
2017-10-11T02:26:42.649Z,91.93
2017-10-11T02:29:08.887Z,91.42
2017-10-11T02:31:35.101Z,89.72
2017-10-11T02:34:01.315Z,89.83
2017-10-11T02:36:27.544Z,91.50
2017-10-11T02:38:53.833Z,89.93
2017-10-11T02:41:20.064Z,90.06
2017-10-11T02:43:46.290Z,88.91
2017-10-11T02:46:12.540Z,90.03
2017-10-11T02:48:38.776Z,89.99
2017-10-11T02:51:05.005Z,90.48
2017-10-11T02:53:31.243Z,91.20
2017-10-11T02:55:57.469Z,91.67
2017-10-11T02:58:23.808Z,91.60
2017-10-11T03:00:50.070Z,92.28
2017-10-11T03:03:16.462Z,92.73
2017-10-11T03:05:42.679Z,92.08
2017-10-11T03:08:08.921Z,92.46
2017-10-11T03:10:35.152Z,91.52
2017-10-11T03:13:01.388Z,92.04
2017-10-11T03:15:27.621Z,91.42
2017-10-11T03:17:53.861Z,91.33
2017-10-11T03:20:20.111Z,92.10
2017-10-11T03:22:46.508Z,92.75
2017-10-11T03:25:12.728Z,93.51
2017-10-11T03:27:39.013Z,92.78
2017-10-11T03:30:05.230Z,91.67
2017-10-11T03:32:31.444Z,91.86
2017-10-11T03:34:57.699Z,91.94
2017-10-11T03:37:24.582Z,91.89
2017-10-11T03:39:50.935Z,92.19
2017-10-11T03:42:17.180Z,92.58
2017-10-11T03:44:43.407Z,92.92
2017-10-11T03:47:09.647Z,93.64
2017-10-11T03:49:35.875Z,93.48
2017-10-11T03:52:02.116Z,93.64
2017-10-11T03:54:28.358Z,93.91
2017-10-11T03:56:54.581Z,93.99
2017-10-11T03:59:20.799Z,94.46
2017-10-11T04:01:47.026Z,94.99
2017-10-11T04:04:13.299Z,94.76
2017-10-11T04:06:39.649Z,94.40
2017-10-11T04:09:05.870Z,94.29
2017-10-11T04:11:32.100Z,94.61
2017-10-11T04:13:58.540Z,94.11
2017-10-11T04:16:24.780Z,92.37
2017-10-11T04:18:51.058Z,91.27
2017-10-11T04:21:17.295Z,91.49
2017-10-11T04:23:43.516Z,92.06
2017-10-11T04:26:09.752Z,92.54
2017-10-11T04:28:36.030Z,90.31
2017-10-11T04:31:02.257Z,90.39
2017-10-11T04:33:28.574Z,90.63
2017-10-11T04:35:54.837Z,91.13
2017-10-11T04:38:21.059Z,91.44
2017-10-11T04:40:47.335Z,90.93
2017-10-11T04:43:13.558Z,90.17
2017-10-11T04:45:39.932Z,90.50
2017-10-11T04:48:06.142Z,91.18
2017-10-11T04:50:32.412Z,90.50
2017-10-11T04:52:58.660Z,89.40
2017-10-11T04:55:24.893Z,88.75
2017-10-11T04:57:51.126Z,88.23
2017-10-11T05:00:17.358Z,87.21
2017-10-11T05:02:43.597Z,86.00
2017-10-11T05:05:09.864Z,85.52
2017-10-11T05:07:36.101Z,86.10
2017-10-11T05:10:02.342Z,86.45
2017-10-11T05:12:28.579Z,86.17
2017-10-11T05:14:54.807Z,84.10
2017-10-11T05:17:21.141Z,82.84
2017-10-11T05:19:47.399Z,81.25
2017-10-11T05:22:13.676Z,78.55
2017-10-11T05:24:39.927Z,73.56
2017-10-11T05:27:06.158Z,68.17
2017-10-11T05:29:32.385Z,65.30
2017-10-11T05:31:58.645Z,61.25
2017-10-11T05:34:24.877Z,59.01
2017-10-11T05:36:51.116Z,59.14
2017-10-11T05:39:17.330Z,57.74
2017-10-11T05:41:43.542Z,59.14
2017-10-11T05:44:09.827Z,56.83
2017-10-11T05:46:36.057Z,55.24
2017-10-11T05:49:02.307Z,53.78
2017-10-11T05:51:28.541Z,52.42
2017-10-11T05:53:54.763Z,51.17
2017-10-11T05:56:20.986Z,51.28
2017-10-11T05:58:47.383Z,51.41
2017-10-11T06:01:13.640Z,50.47
2017-10-11T06:03:39.873Z,50.00
2017-10-11T06:06:06.103Z,49.12
2017-10-11T06:08:32.349Z,45.72
2017-10-11T06:10:58.612Z,46.84
2017-10-11T06:13:24.939Z,46.39
2017-10-11T06:15:51.171Z,45.61
2017-10-11T06:18:17.411Z,44.90
2017-10-11T06:20:43.637Z,43.48
2017-10-11T06:23:09.865Z,44.33
2017-10-11T06:25:36.328Z,44.52
2017-10-11T06:28:02.544Z,43.56
2017-10-11T06:30:28.771Z,41.28
2017-10-11T06:32:55.009Z,40.88
2017-10-11T06:35:21.240Z,42.16
2017-10-11T06:37:47.457Z,41.37
2017-10-11T06:40:13.673Z,42.56
2017-10-11T06:42:39.901Z,40.87
2017-10-11T06:45:06.127Z,41.19
2017-10-11T06:47:32.369Z,40.16
2017-10-11T06:49:58.640Z,41.11
2017-10-11T06:52:24.862Z,40.86
2017-10-11T06:54:51.077Z,42.34
2017-10-11T06:57:17.305Z,42.74
2017-10-11T06:59:43.525Z,41.25
2017-10-11T07:02:09.746Z,40.85
2017-10-11T07:04:36.029Z,42.43
2017-10-11T07:07:02.261Z,44.65
2017-10-11T07:09:28.497Z,42.95
2017-10-11T07:11:54.879Z,43.39
2017-10-11T07:14:21.123Z,42.00
2017-10-11T07:16:47.334Z,40.35
2017-10-11T07:19:13.572Z,41.58
2017-10-11T07:21:39.811Z,41.43
2017-10-11T07:24:06.032Z,39.65
2017-10-11T07:26:32.277Z,40.29
2017-10-11T07:28:58.490Z,41.75
2017-10-11T07:31:24.703Z,40.71
2017-10-11T07:33:50.926Z,38.67
2017-10-11T07:36:17.162Z,37.90
2017-10-11T07:38:43.404Z,38.09
2017-10-11T07:41:09.639Z,37.30
2017-10-11T07:43:35.867Z,37.63
2017-10-11T07:46:02.115Z,36.61
2017-10-11T07:48:28.333Z,37.32
2017-10-11T07:50:54.591Z,36.13
2017-10-11T07:53:20.801Z,37.27
2017-10-11T07:55:47.029Z,38.51
2017-10-11T07:58:13.265Z,40.54
2017-10-11T08:00:39.499Z,42.94
2017-10-11T08:03:05.713Z,40.77
2017-10-11T08:05:31.966Z,39.42
2017-10-11T08:07:58.190Z,40.48
2017-10-11T08:10:24.399Z,40.25
2017-10-11T08:12:50.621Z,40.44
2017-10-11T08:15:16.889Z,41.03
2017-10-11T08:17:43.251Z,40.42
2017-10-11T08:20:09.494Z,39.40
2017-10-11T08:22:35.732Z,39.02
2017-10-11T08:25:01.950Z,39.88
2017-10-11T08:27:28.291Z,38.49
2017-10-11T08:29:54.502Z,37.70
2017-10-11T08:32:20.719Z,36.84
2017-10-11T08:34:46.949Z,34.29
2017-10-11T08:37:13.203Z,33.85
2017-10-11T08:39:39.418Z,35.12
2017-10-11T08:42:05.607Z,35.06
2017-10-11T08:44:31.826Z,35.12
2017-10-11T08:46:58.059Z,34.04
2017-10-11T08:49:24.278Z,33.43
2017-10-11T08:51:50.503Z,34.66
2017-10-11T08:54:16.726Z,35.50
2017-10-11T08:56:42.955Z,33.19
2017-10-11T08:59:09.176Z,31.64
2017-10-11T09:01:35.454Z,32.27
2017-10-11T09:04:01.741Z,30.89
2017-10-11T09:06:27.964Z,28.05
2017-10-11T09:08:54.194Z,27.82
2017-10-11T09:11:20.443Z,28.08
2017-10-11T09:13:46.628Z,30.20
2017-10-11T09:16:12.859Z,28.95
2017-10-11T09:18:39.059Z,28.25
2017-10-11T09:21:05.230Z,29.43
2017-10-11T09:23:31.432Z,30.17
2017-10-11T09:25:57.604Z,30.18
2017-10-11T09:28:23.784Z,29.78
2017-10-11T09:30:49.968Z,29.55
2017-10-11T09:33:16.154Z,29.83
2017-10-11T09:35:42.359Z,29.48
2017-10-11T09:38:08.549Z,28.89
2017-10-11T09:40:34.711Z,27.83
2017-10-11T09:43:00.941Z,28.11
2017-10-11T09:45:27.131Z,28.32
2017-10-11T09:47:53.369Z,30.35
2017-10-11T09:50:19.548Z,29.77
2017-10-11T09:52:45.749Z,27.91
2017-10-11T09:55:12.130Z,27.40
2017-10-11T09:57:38.326Z,27.52
2017-10-11T10:00:04.544Z,28.14
2017-10-11T10:02:30.801Z,28.91
2017-10-11T10:04:56.989Z,26.18
2017-10-11T10:07:23.162Z,25.85
2017-10-11T10:09:49.326Z,25.88
2017-10-11T10:12:15.504Z,25.68
2017-10-11T10:14:41.692Z,24.08
2017-10-11T10:17:07.868Z,25.19
2017-10-11T10:19:34.093Z,26.51
2017-10-11T10:22:00.288Z,26.08
2017-10-11T10:24:26.467Z,27.11
2017-10-11T10:26:52.649Z,27.03
2017-10-11T10:29:18.837Z,26.70
2017-10-11T10:31:45.045Z,27.59
2017-10-11T10:34:11.230Z,27.35
2017-10-11T10:36:37.423Z,25.77
2017-10-11T10:39:03.609Z,26.96
2017-10-11T10:41:29.805Z,23.79
2017-10-11T10:43:55.997Z,24.51
2017-10-11T10:46:22.205Z,23.25
2017-10-11T10:48:48.374Z,23.63
2017-10-11T10:51:14.545Z,25.42
2017-10-11T10:53:40.726Z,25.79
2017-10-11T10:56:06.894Z,27.83
2017-10-11T10:58:33.110Z,25.73
2017-10-11T11:00:59.278Z,25.81
2017-10-11T11:03:25.437Z,25.14
2017-10-11T11:05:51.617Z,26.04
2017-10-11T11:08:17.830Z,24.27
2017-10-11T11:10:44.036Z,24.89
2017-10-11T11:13:10.218Z,26.43
2017-10-11T11:15:36.387Z,25.18
2017-10-11T11:18:02.563Z,26.23
2017-10-11T11:20:28.746Z,24.01
2017-10-11T11:22:54.952Z,23.59
2017-10-11T11:25:21.093Z,22.94
2017-10-11T11:27:47.267Z,21.83
2017-10-11T11:30:13.650Z,21.36
2017-10-11T11:32:39.831Z,21.06
2017-10-11T11:35:06.119Z,21.18
2017-10-11T11:37:32.314Z,22.13
2017-10-11T11:39:58.489Z,22.50
2017-10-11T11:42:24.650Z,23.54
2017-10-11T11:44:50.809Z,24.22
2017-10-11T11:47:17.033Z,24.68
2017-10-11T11:49:43.216Z,23.91
2017-10-11T11:52:09.396Z,22.63
2017-10-11T11:54:35.562Z,21.21
2017-10-11T11:57:01.745Z,21.23
2017-10-11T11:59:27.968Z,21.75
2017-10-11T12:01:54.135Z,23.67
2017-10-11T12:04:20.295Z,25.91
2017-10-11T12:06:46.488Z,23.92
2017-10-11T12:09:12.775Z,25.44
2017-10-11T12:11:38.995Z,25.08
2017-10-11T12:14:05.176Z,26.72
2017-10-11T12:16:31.335Z,27.35
2017-10-11T12:18:57.536Z,25.94
2017-10-11T12:21:23.706Z,24.37
2017-10-11T12:23:49.860Z,23.51
2017-10-11T12:26:16.036Z,23.90
2017-10-11T12:28:42.201Z,25.12
2017-10-11T12:31:08.390Z,26.90
2017-10-11T12:33:34.558Z,27.42
2017-10-11T12:36:00.702Z,26.54
2017-10-11T12:38:26.863Z,25.33
2017-10-11T12:40:53.023Z,24.37
2017-10-11T12:43:19.253Z,24.37
2017-10-11T12:45:45.504Z,25.41
2017-10-11T12:48:11.679Z,24.70
2017-10-11T12:50:37.868Z,25.24
2017-10-11T12:53:04.044Z,25.28
2017-10-11T12:55:30.264Z,24.28
2017-10-11T12:57:56.429Z,24.28
2017-10-11T13:00:22.608Z,24.47
2017-10-11T13:02:48.939Z,24.10
2017-10-11T13:05:15.282Z,22.92
2017-10-11T13:07:41.500Z,23.64
2017-10-11T13:10:07.681Z,23.46
2017-10-11T13:12:33.861Z,25.58
2017-10-11T13:15:00.072Z,26.12
2017-10-11T13:17:26.247Z,25.72
2017-10-11T13:19:52.419Z,27.27
2017-10-11T13:22:18.617Z,29.05
2017-10-11T13:24:44.802Z,31.51
2017-10-11T13:27:10.983Z,32.65
2017-10-11T13:29:37.201Z,34.83
2017-10-11T13:32:03.409Z,33.66
2017-10-11T13:34:29.629Z,35.78
2017-10-11T13:36:55.795Z,37.77
2017-10-11T13:39:21.965Z,38.88
2017-10-11T13:41:48.122Z,38.82
2017-10-11T13:44:14.325Z,38.59
2017-10-11T13:46:40.500Z,39.18
2017-10-11T13:49:06.808Z,38.82
2017-10-11T13:51:32.976Z,39.54
2017-10-11T13:53:59.154Z,40.17
2017-10-11T13:56:25.331Z,41.07
2017-10-11T13:58:51.554Z,40.96
2017-10-11T14:01:17.732Z,39.81
2017-10-11T14:03:44.026Z,40.86
2017-10-11T14:06:10.276Z,40.98
2017-10-11T14:08:36.437Z,41.35
2017-10-11T14:11:02.606Z,40.79
2017-10-11T14:13:28.784Z,41.54
2017-10-11T14:15:54.950Z,42.66
2017-10-11T14:18:21.121Z,42.61
2017-10-11T14:20:47.386Z,43.20
2017-10-11T14:23:13.547Z,43.06
2017-10-11T14:25:39.797Z,42.37
2017-10-11T14:28:05.964Z,43.43
2017-10-11T14:30:32.154Z,43.08
2017-10-11T14:32:58.565Z,43.58
2017-10-11T14:35:24.800Z,43.69
2017-10-11T14:37:51.040Z,44.39
2017-10-11T14:40:17.275Z,44.23
2017-10-11T14:42:43.687Z,44.69
2017-10-11T14:45:09.913Z,45.03
2017-10-11T14:47:36.141Z,45.98
2017-10-11T14:50:02.383Z,45.44
2017-10-11T14:52:28.628Z,46.00
2017-10-11T14:54:54.896Z,45.93
2017-10-11T14:57:21.295Z,48.36
2017-10-11T14:59:47.545Z,50.41
2017-10-11T15:02:13.903Z,52.02
2017-10-11T15:04:40.123Z,53.56
2017-10-11T15:07:06.355Z,52.56
2017-10-11T15:09:32.611Z,54.95
2017-10-11T15:11:58.843Z,53.86
2017-10-11T15:14:25.274Z,56.34
2017-10-11T15:16:51.512Z,58.23
2017-10-11T15:19:17.935Z,58.54
2017-10-11T15:21:44.292Z,58.72
2017-10-11T15:24:10.604Z,59.49
2017-10-11T15:26:37.031Z,59.95
2017-10-11T15:29:03.274Z,60.94
2017-10-11T15:31:29.481Z,61.37
2017-10-11T15:33:55.732Z,61.67
2017-10-11T15:36:21.969Z,62.34
2017-10-11T15:38:48.237Z,62.95
2017-10-11T15:41:14.439Z,64.40
2017-10-11T15:43:40.646Z,64.89
2017-10-11T15:46:06.866Z,65.76
2017-10-11T15:48:33.099Z,66.88
2017-10-11T15:50:59.318Z,66.71
2017-10-11T15:53:25.535Z,67.34
2017-10-11T15:55:51.744Z,68.31
2017-10-11T15:58:17.979Z,68.77
2017-10-11T16:00:44.197Z,69.64
2017-10-11T16:03:10.454Z,69.51
2017-10-11T16:05:36.669Z,70.32
2017-10-11T16:08:02.887Z,71.19
2017-10-11T16:10:29.120Z,72.47
2017-10-11T16:12:55.348Z,73.26
2017-10-11T16:15:21.579Z,73.92
2017-10-11T16:17:47.801Z,75.13
2017-10-11T16:20:14.017Z,75.17
2017-10-11T16:22:40.235Z,76.36
2017-10-11T16:25:06.467Z,75.60
2017-10-11T16:27:32.747Z,75.23
2017-10-11T16:29:58.975Z,75.54
2017-10-11T16:32:25.183Z,76.46
2017-10-11T16:34:51.437Z,75.43
2017-10-11T16:37:17.634Z,73.84
2017-10-11T16:39:43.884Z,74.63
2017-10-11T16:42:10.111Z,75.61
2017-10-11T16:44:36.339Z,78.02
2017-10-11T16:47:02.573Z,77.00
2017-10-11T16:49:28.807Z,76.58
2017-10-11T16:51:55.043Z,76.84
2017-10-11T16:54:21.267Z,78.31
2017-10-11T16:56:47.504Z,78.75
2017-10-11T16:59:13.727Z,78.80
2017-10-11T17:01:39.945Z,78.63
2017-10-11T17:04:06.232Z,78.41
2017-10-11T17:06:32.455Z,78.19
2017-10-11T17:08:58.675Z,77.97
2017-10-11T17:11:24.903Z,79.31
2017-10-11T17:13:51.118Z,79.25
2017-10-11T17:16:17.376Z,79.08
2017-10-11T17:18:43.726Z,80.17
2017-10-11T17:21:09.926Z,80.45
2017-10-11T17:23:36.150Z,78.73
2017-10-11T17:26:02.379Z,79.00
2017-10-11T17:28:28.588Z,79.74
2017-10-11T17:30:54.820Z,80.23
2017-10-11T17:33:21.031Z,80.28
2017-10-11T17:35:47.339Z,82.01
2017-10-11T17:38:13.549Z,81.24
2017-10-11T17:40:39.776Z,81.95
2017-10-11T17:43:06.000Z,81.84
2017-10-11T17:45:32.220Z,82.67
2017-10-11T17:47:58.451Z,83.45
2017-10-11T17:50:24.668Z,82.95
2017-10-11T17:52:50.879Z,83.57
2017-10-11T17:55:17.104Z,83.66
2017-10-11T17:57:43.321Z,84.15
2017-10-11T18:00:09.565Z,84.69
2017-10-11T18:02:35.792Z,85.31
2017-10-11T18:05:02.070Z,85.30
2017-10-11T18:07:28.293Z,85.46
2017-10-11T18:09:54.503Z,85.33
2017-10-11T18:12:20.749Z,85.75
2017-10-11T18:14:46.966Z,84.93
2017-10-11T18:17:13.181Z,85.72
2017-10-11T18:19:39.392Z,86.33
2017-10-11T18:22:05.603Z,86.69
2017-10-11T18:24:31.811Z,86.87
2017-10-11T18:26:58.033Z,86.46
2017-10-11T18:29:24.252Z,86.54
2017-10-11T18:31:50.487Z,87.13
2017-10-11T18:34:16.740Z,87.66
2017-10-11T18:36:42.950Z,88.33
2017-10-11T18:39:09.163Z,88.63
2017-10-11T18:41:35.530Z,88.49
2017-10-11T18:44:01.755Z,89.20
2017-10-11T18:46:28.006Z,88.12
2017-10-11T18:48:54.268Z,88.02
2017-10-11T18:51:20.484Z,87.67
2017-10-11T18:53:46.774Z,88.09
2017-10-11T18:56:12.998Z,88.80
2017-10-11T18:58:39.219Z,89.03
2017-10-11T19:01:05.462Z,90.72
2017-10-11T19:03:31.690Z,89.72
2017-10-11T19:05:57.895Z,89.50
2017-10-11T19:08:24.163Z,88.07
2017-10-11T19:10:50.371Z,88.31
2017-10-11T19:13:16.577Z,88.77
2017-10-11T19:15:42.802Z,89.14
2017-10-11T19:18:09.025Z,90.35
2017-10-11T19:20:35.298Z,89.65
2017-10-11T19:23:01.526Z,89.05
2017-10-11T19:25:27.721Z,89.21
2017-10-11T19:27:53.943Z,89.53
2017-10-11T19:30:20.149Z,89.62
2017-10-11T19:32:46.411Z,90.06
2017-10-11T19:35:12.627Z,90.20
2017-10-11T19:37:38.847Z,90.64
2017-10-11T19:40:05.063Z,90.72
2017-10-11T19:42:31.342Z,90.58
2017-10-11T19:44:57.570Z,90.30
2017-10-11T19:47:23.811Z,90.54
2017-10-11T19:49:50.032Z,91.22
2017-10-11T19:52:16.244Z,90.87
2017-10-11T19:54:42.450Z,91.34
2017-10-11T19:57:08.658Z,91.47
2017-10-11T19:59:34.866Z,91.79
2017-10-11T20:02:01.175Z,91.77
2017-10-11T20:04:27.386Z,92.25
2017-10-11T20:06:53.815Z,92.20
2017-10-11T20:09:20.023Z,92.57
2017-10-11T20:11:46.287Z,92.94
2017-10-11T20:14:12.523Z,92.95
2017-10-11T20:16:38.930Z,93.09
2017-10-11T20:19:05.239Z,92.68
2017-10-11T20:21:31.444Z,92.52
2017-10-11T20:23:57.640Z,92.54
2017-10-11T20:26:23.891Z,92.60
2017-10-11T20:28:50.095Z,92.79
2017-10-11T20:31:16.332Z,92.45
2017-10-11T20:33:42.552Z,92.24
2017-10-11T20:36:08.782Z,92.65
2017-10-11T20:38:35.023Z,92.56
2017-10-11T20:41:02.289Z,93.03
2017-10-11T20:43:28.825Z,92.72
2017-10-11T20:45:55.120Z,92.65
2017-10-11T20:48:21.328Z,92.90
2017-10-11T20:50:47.534Z,93.19
2017-10-11T20:53:13.771Z,93.19
2017-10-11T20:55:39.964Z,93.10
2017-10-11T20:58:06.199Z,93.40
2017-10-11T21:00:32.543Z,93.37
2017-10-11T21:02:58.777Z,93.12
2017-10-11T21:05:24.990Z,93.42
2017-10-11T21:07:51.391Z,93.86
2017-10-11T21:10:17.639Z,93.77
2017-10-11T21:12:44.055Z,93.68
2017-10-11T21:15:10.263Z,93.53
2017-10-11T21:17:36.508Z,93.68
2017-10-11T21:20:02.730Z,93.86
2017-10-11T21:22:28.967Z,93.96
2017-10-11T21:24:55.182Z,94.14
2017-10-11T21:27:21.400Z,94.05
2017-10-11T21:29:47.663Z,94.00
2017-10-11T21:32:13.874Z,93.87
2017-10-11T21:34:40.099Z,93.67
2017-10-11T21:37:06.345Z,93.54
2017-10-11T21:39:32.554Z,93.63
2017-10-11T21:41:58.774Z,93.80
2017-10-11T21:44:25.023Z,93.35
2017-10-11T21:46:51.256Z,93.36
2017-10-11T21:49:17.471Z,93.22
2017-10-11T21:51:43.720Z,93.61
2017-10-11T21:54:09.948Z,93.52
2017-10-11T21:56:36.163Z,93.76
2017-10-11T21:59:02.434Z,94.11
2017-10-11T22:01:28.655Z,94.17
2017-10-11T22:03:54.869Z,94.07
2017-10-11T22:06:21.122Z,93.90
2017-10-11T22:08:47.343Z,93.91
2017-10-11T22:11:13.554Z,93.95
2017-10-11T22:13:39.794Z,94.13
2017-10-11T22:16:06.020Z,94.06
2017-10-11T22:18:32.232Z,94.17
2017-10-11T22:20:58.472Z,94.39
2017-10-11T22:23:24.687Z,94.40
2017-10-11T22:25:50.916Z,94.50
2017-10-11T22:28:17.174Z,94.15
2017-10-11T22:30:43.399Z,94.43
2017-10-11T22:33:09.632Z,94.17
2017-10-11T22:35:35.897Z,94.15
2017-10-11T22:38:02.267Z,93.89
2017-10-11T22:40:28.500Z,93.71
2017-10-11T22:42:54.767Z,93.97
2017-10-11T22:45:21.001Z,94.35
2017-10-11T22:47:47.237Z,94.20
2017-10-11T22:50:13.601Z,94.21
2017-10-11T22:52:39.835Z,94.32
2017-10-11T22:55:06.048Z,94.37
2017-10-11T22:57:32.505Z,94.38
2017-10-11T22:59:58.740Z,94.09
2017-10-11T23:02:24.988Z,94.29
2017-10-11T23:04:51.259Z,94.42
2017-10-11T23:07:17.493Z,94.35
2017-10-11T23:09:43.727Z,94.30
2017-10-11T23:12:10.020Z,94.23
2017-10-11T23:14:36.272Z,94.23
2017-10-11T23:17:02.515Z,94.23
2017-10-11T23:19:28.773Z,94.20
2017-10-11T23:21:54.998Z,94.49
2017-10-11T23:24:21.213Z,94.07
2017-10-11T23:26:47.504Z,94.20
2017-10-11T23:29:13.734Z,94.21
2017-10-11T23:31:39.952Z,94.34
2017-10-11T23:34:06.210Z,94.61
2017-10-11T23:36:32.447Z,94.70
2017-10-11T23:38:58.653Z,94.77
2017-10-11T23:41:24.935Z,94.81
2017-10-11T23:43:51.146Z,94.86
2017-10-11T23:46:17.383Z,94.83
2017-10-11T23:48:43.715Z,94.52
2017-10-11T23:51:09.941Z,94.52
2017-10-11T23:53:36.182Z,94.62
2017-10-11T23:56:02.463Z,94.33
2017-10-11T23:58:28.669Z,94.45
